Temps Etape 1 et Heures de D├ępart Etape 2  
 
HeureConducteurAsaCoéquipierVoitureGroupeClassePénaTempsEcarts
10h501CUOQ Jean-MarieARDECHEGRANDEMANGE MarielleCITROËN C4 WRCFA8W 0:45:21,40 
10h523MAURIN JulienMONTELIMARURAL OlivierCITROËN DS3 WRCA8W 0:45:51,2000:29,80
10h5411GILBERT QuentinNANCYJAMOUL RenaudSKODA Fabia R5RR5 0:47:40,7002:19,30
10h564DURBEC ThibaultVARRENUCCI Jacques-JulienCITROËN DS3 WRCA8W10s0:47:45,9002:24,50
10h5812BERFA JordanMONTS D'AUTANAUGUSTIN DamienHUYNDAI i20 R5RR5 0:48:04,2002:42,80
11h0018PONS XavierEspagneJULIA OriolPEUGEOT 208 T16RR5 0:48:11,3002:49,90
11h0214FALCO Jean-MarcGRASSEBOUERI JonathanFORD Fiesta R5RR5 0:49:09,2003:47,80
11h049FERAUD CyrilleGRASSEDUCHEMIN AymericCITROËN C4 WRCFA8W 0:49:34,3004:12,90
11h065CHAYNES GaryCORSICATRIBOUT ChristianCITROËN C4 WRCFA8W 0:50:27,1005:05,70
11h087CLOT CharlesSEQUANIELEON ThierryFORD Fiesta WRCA8W 0:50:42,6005:21,20
11h108RAOUX Jean-MichelRESTONICAMAGAT LaurentCITROËN DS3 WRCA8W 0:51:00,5005:39,10
11h1216PETIT Jean-EricALESMAURIN MathieuFORD Fiesta R5RR5 0:51:00,6005:39,20
11h146ROUSSET EricSAINT MARCELLINOISEGOSSET Jean-DavidCITROËN Xsara WRCFA8W 0:51:12,8005:51,40
11h162BAUD LionelMONT-BLANCCRAEN FabienFORD Focus WRCA8W 4:52:43,60Rallye 2
11h1754PELLIER Laurent"74"NEYRET-GIGOT BenoîtPEUGEOT 208 VTIRR2 0:51:37,7006:16,30
11h1859RIBAUD QuentinHAUTE PROVENCEBALME BenoîtPEUGEOT 208 VTIRR2 0:51:48,8006:27,40
11h1960LARIO TaiskoFinlandeRYYNÄNEN SamiPEUGEOT 208 VTIRR2 0:51:59,3006:37,90
11h2040MARTI ChristianROUTE D'ARGENTLAVIALE Jean-MarcMITSUBISHI Lancer Evo9N4 0:52:01,9006:40,50
11h2161GAGO DiogoPortugalDEL BARRIO GARCIA RodolfoPEUGEOT 208 VTIRR2 0:52:12,6006:51,20
11h2250VEYRARD DidierFOREZTARDY VincentSUBARU Impreza STIFN4 0:52:17,9006:56,50
11h2357LLARENA EfrenEspagneFERNANDEZ SaraPEUGEOT 208 VTIRR2 0:52:33,9007:12,50
11h2462SAHILA AkiFinlandeSUORSA RamiPEUGEOT 208 VTIRR2 0:52:40,4007:19,0
11h2527TARDY GuilaumeFOREZCHOUDEY Marc-EmilienSUBARU ImprezaFA8 0:52:44,9007:23,50
11h2610"PIANO"RESTONICAPAOLO CottuSUBARU Impreza WRCFA8W 0:52:47,1007:25,70
11h2736SALIN DanielROUTE D'ARGENTSALIN BrigitteSUBARU Impreza WRXRR4 0:52:47,7007:26,30
11h2837DESANGLES YanisROUTE D'ARGENTTHERON NicolasSUBARU Impreza STIRR4 0:52:55,8007:34,40
11h2915BESSON Jean-PascalESCAROISSAC PatriceSKODA Fabia R5RR5 0:53:00,8007:39,40
11h3070PINHEIRO Karl-AlexandreBRESSE BUGEYLE FLOCH FranckPEUGEOT 208 VTIRR2 0:53:12,3007:50,90
11h3120GAIDOZ HervéCHAMPAGNERICHARD FrançoisSUBARU Impreza WRXFA8 0:53:16,2007:54,80
11h3230CHIAVARO Daniel"74"DUPANLOUP AlexandraSUBARU Impreza STIA8 0:53:37,6008:16,20
11h3319MORDACQ ArnaudDETROITRATIER Marie-NoëlleMITSUBISHI Lancer Evo9FN4 0:53:44,7008:23,30
11h3463WAGEMANS JoachimBelgiqueDU PAN AntonPEUGEOT 208 VTIRR2 0:53:46,008:24,60
11h3565BOSCH FlorentinANTIBES JUAN-LES-PINSLAZZARINI Jean-PaulPEUGEOT 208 VTIRR2 0:53:47,1008:25,70
11h3672TAVENEAU SamAUGIASPOINT ClémentPEUGEOT 208 VTIRR2 0:53:47,9008:26,50
11h3742CONDAMINES FlorianSAINT-AFFRIQUEDELMAS CyrilSUBARU ImprezaFN4 0:54:10,1008:48,70
11h3821GIRAUD EmmanuelDU VARGIRAUD GrégoryMITSUBISHI Lancer Evo8FA8 0:54:19,9008:58,50
11h3983MARCHAL EddyVOSGIENJOLÉ DamienCITROËN Saxo T4FA6K 0:54:19,9008:58,50
11h4023FILLAYRE JacquesDÔME FOREZDERRE CyrilMITSUBISHI Lancer Evo4FA8 0:54:22,7009:01,30
11h4117FRAU RichardMARSEILLEGASTINEL Jean-FrançoisFORD Fiesta R5RR530s0:54:23,4009:02,0
11h4275VENTURINI HenriRESTONICACORONA FabricePEUGEOT 208 VTIRR2 0:54:33,3009:11,90
11h4343PUEL GérardROUTE D'ARGENTPUEL CarolineMITSUBISHI Lancer Evo8FN4 0:54:34,4009:13,0
11h4441FONTAINE FabienDRÔMEFONTAINE BastienMITSUBISHI Lancer Evo5FN4 0:54:38,3009:16,90
11h4544GUIGNARD EricMENTONMEFFRE DidierSUBARU ImprezaN4 0:54:41,3009:19,90
11h4681VIALLE LilianARDECHEGHIRARDELLO ManuelRENAULT Clio R3RR3 0:54:45,009:23,60
11h47124MASCLAUX ArnaudHAUTE VALLÉE DE LA LOIRECORMERAIS LoïcRENAULT Clio RagnottiF200014 0:54:56,009:34,60
11h4853VITAL Jean-PierreHAUTE VALLÉE DE LA LOIREDECOUZON PierreCITROËN Saxo VTSF200013 0:54:59,3009:37,90
11h4952JULIA DavidALESAUBERTIN LudovicPEUGEOT 206 RcF200014 0:55:00,7009:39,30
11h5087SALGUES GillesSAINT-AFFRIQUEMOUYSSET JérômeCITROËN Saxo T4FA6K 0:55:14,009:52,60
11h5173MOLLARD AlexandreRHÔNEEYMIN-PETOT NicolasPEUGEOT 208 VTIRR2 0:55:33,7010:12,30
11h5246LOPEZ YannickISTRESLOPEZ BriceSUBARU Impreza WRXFN4 0:55:34,010:12,60
11h5338MOREL Jean-LucMEDITERRANÉEGIDEL PhilippeSUBARU Impreza WRXFN4 0:56:20,5010:59,10
11h54116RAYNAUD GabrielMIDI-TOULOUSEJULIEN WilliamSEAT Ibiza GTIF200014 0:55:34,4010:13,0
11h5548PRIOLO LaurentVENCE CITÉ DES ARTSDALMAS YannickMITSUBISHI Lancer Evo9FN4 0:55:35,7010:14,30
11h5635MORDACQ LaurentDETROITMORTIER HervéMITSUBISHI Lancer Evo9RR4 0:55:42,2010:20,80
11h5734PELUTTIERO ThibaudGRASSEREICHENECKER JoshMITSUBISHI Lancer EvoXRR4 5:29:03,20Rallye 2
11h5895GOUY QuentinROUTE D'ARGENTTHILLIEZ QuentinCITROËN C2 R2RR2 0:55:47,010:25,60
11h5986MARCOBAL ThierryALESMARCOBAL-BASTIDE CantinCITROËN Saxo T4FA6K 0:56:01,1010:39,70
12h0076COLNEY ThierryALSACEFORTMANN PatrickCITROËN DS3 R3RR3 0:56:01,4010:40,0
12h0171RAMBAUD SébastienRHÔNERICOU BricePEUGEOT 208 VTIRR2 0:56:16,010:54,60
12h02132SABATIER FlorentHAUTE VALLÉE DE LA LOIRESANTIAGO ThomasPEUGEOT 106 S16FA6 0:56:16,8010:55,40
12h0380GUINCHARD EmmanuelSEQUANIECHATELAIN MickaelPEUGEOT 207 RcRR320s0:56:46,011:24,60
12h04113BLANCK LionelROUTE D'ARGENTBLANCK ArnaudPEUGEOT 206 RcF200014 0:56:50,7011:29,30
12h0590COLOMBE GeoffroyROQUE ET DURANCEFABREGUE RégisPEUGEOT 206 XSFA6K 0:56:57,1011:35,70
12h0699FOTIA AnthonyBÂTIMENT ET TRAVAUX PUBLICSMILLET KévinFORD Fiesta R2RR2 0:56:58,5011:37,10
12h0798DI FANTE RomainGRASSETEMPIER RomainFORD Fiesta R2JRR2J 0:57:08,5011:47,10
12h08102SOUFFEZ FrédéricOCEANEPRUVOST AstridPEUGEOT 206 RcFA7 0:57:14,7011:53,30
12h0991BERTON CharlotteROUTE D'ARGENTTAILLANDIER ThomasCITROËN Saxo T4FA6K 0:57:18,8011:57,40
12h10125BELLIARDO DanielROUTE D'ARGENTBRAQUET Jean-BaptistePEUGEOT 306 S16FN3 0:57:24,2012:02,80
12h1189CREPIN MaudeALESFRANÇOIS LéaCITROËN Saxo T4FA6K 0:57:35,9012:14,50
12h12111PILLARD CédricROQUE ET DURANCENOHARET LaurentPEUGEOT 206 RcF200014 0:57:47,5012:26,10
12h1397MARGAILLAN HugoSAINT-RAPHAËLPOUJOL SébastienFORD Fiesta R2JRR2J 0:57:50,1012:28,70
12h1467JAMET JérémyMONT-BLANCSECACHE MichaelPEUGEOT 208 VTIRR2 0:57:51,8012:30,40
12h1596PULVERIC GillesCôte d'IvoireLE BORGNE DidierPEUGEOT 208 VTIRR2 0:57:53,7012:32,30
12h16100VATANEN MaxFinlandeBEURET MelindaFORD Fiesta R2RR2 5:29:03,20Rallye 2
12h1794JOUINES JeanBITTEROISCHABBERT MartinOPEL Adam RallyRFR2 4:07:19,70Rallye 2
12h1877DAZY Jean-PierreVINS MÂCONLOIZEAUX DidierRENAULT Clio R3RR3 0:58:07,5012:46,10
12h1964HAIGH-SMITH AshleyAfrique du SudBURNS NiallPEUGEOT 208 VTIRR23m30s0:58:11,8012:50,40
12h2066MAÏSANO BrandonGRASSEPEBEYRE PierrePEUGEOT 208 VTIRR2 4:54:42,60Rallye 2
12h2168CUFFI TommasoItalieBOSI MassimilianoPEUGEOT 208 VTIRR2 4:54:10,10Rallye 2
12h2269AUTIERO MatthieuBÂTIMENT ET TRAVAUX PUBLICSANDREU AxelPEUGEOT 208 VTIRR2 4:07:39,80Rallye 2
12h2328GIL StéphaneISTRESMORGET ArnaudSUBARU Impreza WRXFA8 0:58:11,9012:50,50
12h24117ROUCOULY MathieuSAINT-AFFRIQUEGILHODES Jean-LouisPEUGEOT 309 GTIF200014 0:58:30,013:08,60
12h25149RICHAUD PascalBITTEROISSENDJAKEDINE MikaëlSUZUKI Swift SportFN2 0:58:37,8013:16,40
12h26115MORARD PhilippeVAUCLUSIENGROLIER CédricCITROËN ZX 16VF200014 0:58:43,7013:22,30
12h2788QUARROZ DamienLANGRESVOLPI CécileCITROËN Saxo T4FA6K 0:58:44,7013:23,30
12h2833ROUGIER RégisROUTE D'ARGENTSOGNO EmilienSUBARU Impreza WRXFA810s0:59:06,6013:45,20
12h29127LESCURE PhilippeSAINT-AFFRIQUEESCAICH BertrandPEUGEOT 306 S16FN3 0:59:11,1013:49,70
12h3092BRENIAUX SébastienJURAJACQUES AnthonyPEUGEOT 206 XSFA6K 0:59:14,1013:52,70
12h3193EYDOUX LaurentROQUE ET DURANCEMOUTOT OlivierPEUGEOT 206 XSFA6K 5:29:03,20Rallye 2
12h32112REGORD HervéHAUTE PROVENCEREGORD CamillePEUGEOT 205 GTIF200014 0:59:16,2013:54,80
12h33145BRISSON EddyBITTEROISMASSON PascalSUZUKI SwiftFN2 0:59:21,4014:00,0
12h34107ROCHER ArnaudLOZEREPAULHAN SabineRENAULT Clio RSFA7 0:59:27,2014:05,80
12h35120RIEU VincentROUTE D'ARGENTDEIXONNE CharlesRENAULT Clio RagnottiF200014 0:59:37,1014:15,70
12h3678BOUCHET Guillaume"73"BLAMPEY FabienPEUGEOT 207 RcRR3 0:59:40,014:18,60
12h3745ECK Jean-LucSAINT-RAPHAËLECK AurélienSUBARU ImprezaFN430s1:00:09,014:47,60
12h38134RALITE ChristopheMONTPELLIER-PIC SAINT LOUPABBAL MariePEUGEOT 106 S16FA6 1:00:16,5014:55,10
12h39136FOURNIER NicolasJURAVATTEAU KévinPEUGEOT 206 XSF200013 1:00:21,6015:00,20
12h40126VANTILLARD Jean-MarcDRÔMEDARRAS PascalinePEUGEOT 206 RcFN3 1:00:27,2015:05,80
12h41135RAMEL OlivierSuisseBODENMANN Jacques-VictorPEUGEOT 106 GTFA6 1:00:33,7015:12,30
12h42133CHOQUER MickaelAIX EN PROVENCEGROULIER VincentPEUGEOT 206 XSFA6 5:29:03,20Rallye 2
12h4347CAMPAGNOLI GabrieleItalieARENA NicolaSUBARU Impreza WRXN4 1:01:11,5015:50,10
12h4439BENIER ThomasJURAPRASSE CédricSUBARU Impreza WRXN4 3:56:13,80Rallye 2
12h45106GELLUSSEAU LucSPORT AUTO OCEANDEJOUX CharlyPEUGEOT 306 S16FA7 1:02:06,6016:45,20
12h46146DOLGOPYATOFF DamienVAISONNAISEFRANÇOIS SolèneSUZUKI SwiftFN2 1:02:15,7016:54,30
12h47142BRENGUES Jean-MarieSAINT-AFFRIQUEBRENGUES MélaniePEUGEOT 205 GTIF200013 1:02:42,2017:20,80
12h48140VAYSSE AdrienROUTE D'ARGENTLAURENS ClémentPEUGEOT 106 S16F200013 1:02:52,6017:31,20
12h49151ROCHE IvanROUTE D'ARGENTGREVOT FlorianPEUGEOT 106 XSIF200012 1:03:04,9017:43,50
12h50139GELY MichelLOZEREVALENTIN CédricPEUGEOT 206 XSF200013 1:03:14,1017:52,70
12h51148LATIEZE YvanROUTE D'ARGENTGOUY CindyPEUGEOT 106 S16FN2 1:03:16,017:54,60
12h52150VAILLE MickaëlLOZERESAVA-LOPEZ SabrinaPEUGEOT 205 GTIFN2 1:03:35,8018:14,40
12h53152VUITTENEZ VictorienSEQUANIECOTE COLISSON MaximePEUGEOT 106 XSIFN1 1:03:36,6018:15,20
12h54104FRELAUT YohannCIRCUIT DE MERIGNACCASSAGNADE PascalPEUGEOT 206 RcFA7 1:04:36,2019:14,80
12h55108GUILLON Jean-LucCIGALOISEGUILLON ThibaultPEUGEOT 206 GTFA7 1:04:43,1019:21,70
12h5631MARON-GIRARD AlainARDECHEGRENIER BernardMITSUBISHI Lancer Evo9FA8 1:04:54,7019:33,30
12h57153CEUGNET SébastienROUTE D'ARGENTLUÇON PascalPEUGEOT 106 XSIFN1 1:04:57,3019:35,90
12h58137RAKOTOMALALA AndryMadagascarGEORGET ChloéPEUGEOT 106 S16F200013 1:05:13,8019:52,40
12h59130RESSOUCHE CharlotteLOZEREBARDOUX PaulineFORD Fiesta STFN3 1:05:58,2020:36,80
13h0026GLEY Jean-PierreLOZEREAUBANEL AurélienB.M.W. 325 iXFA8 1:06:33,8021:12,40
13h0122LOPEZ EtienneISTRESMERCIER MarjorieSUBARU Impreza WRXFA8 5:01:31,90Rallye 2
13h0225GIORDANENGO JimmyGRASSEDELAMOTTE AlexisMITSUBISHI Lancer Evo7FA8 4:07:03,40Rallye 2
13h03154BES YvesROUTE D'ARGENTLE PICHON ChristellePEUGEOT 106 XRF200011 1:07:24,5022:03,10
13h04155SOUBIROUX VincentROUTE D'ARGENTVIGUIE FlorianRENAULT ClioF200011 4:12:15,10Rallye 2
13h05105GAUTHIER BernardROUTE D'ARGENTBLANQUET MurielPEUGEOT 306 S16FA7 1:09:31,3024:09,90
13h06141PICARD ErickMEDITERRANÉEPONTILLE HervéDACIA LoganF200013 1:10:18,4024:57,0
13h07147DI PAOLO AlainDE LA LOIREMORILLON FrederikaPEUGEOT 106 S16FN2 1:11:51,9026:30,50
13h08144TODESCHINI FlorentTAHITIVERGNES KévinDACIA LoganF20001320s1:11:52,7026:31,30
13h09138CAYLA CorentinROUTE D'ARGENTDUMAS BastienCITROËN Saxo VTSF200013 4:09:47,50Rallye 2
13h10119MOULIN FrançoisLOZEREBONNET DorineRENAULT Clio RSF2000141m30s1:16:31,6031:10,20
13h11122VIDAL MarcLOZEREMONTARON LoïcPEUGEOT 309 GTIF20001410s4:32:04,20Rallye 2
13h12118SANHES YvesINGRESSANHES ChristineB.M.W. 318i CompactF200014 4:52:51,70Rallye 2
13h13114BOUZID LilianROUTE D'ARGENTVERGNES AntonyPEUGEOT 306 S16F200014 4:29:23,60Rallye 2
13h14110CLEMENT FrédéricSuisseCOSTES FrançoisPEUGEOT 206 GTF200014 4:32:06,70Rallye 2
13h15123BECCO "BALMONET" Jérôme"73"MONICO CéliaPEUGEOT 309 GTIF200014 4:30:13,90Rallye 2
13h16103TEVELLE CédricROUTE D'ARGENTFACCIO AlexandraPEUGEOT 206 RcFA750s1:18:29,6033:08,20
13h17129GAGNEUR HervéJURALEIBENGUTH ChristophePEUGEOT 306 S16FA740s4:02:30,90Rallye 2